sensor_id;sensor_type;location;lat;lon;timestamp;P1;durP1;ratioP1;P2;durP2;ratioP2
18818;SDS011;9537;45.594;9.294;2023-05-07T00:00:02;14.43;;;12.87;;
18818;SDS011;9537;45.594;9.294;2023-05-07T00:01:08;14.17;;;12.77;;
18818;SDS011;9537;45.594;9.294;2023-05-07T00:02:09;14.00;;;12.30;;
18818;SDS011;9537;45.594;9.294;2023-05-07T00:03:11;14.47;;;12.13;;
18818;SDS011;9537;45.594;9.294;2023-05-07T00:04:14;15.37;;;12.47;;
18818;SDS011;9537;45.594;9.294;2023-05-07T00:05:16;15.20;;;11.70;;
18818;SDS011;9537;45.594;9.294;2023-05-07T00:06:17;16.03;;;12.87;;
18818;SDS011;9537;45.594;9.294;2023-05-07T00:07:19;14.07;;;12.47;;
18818;SDS011;9537;45.594;9.294;2023-05-07T00:08:21;14.37;;;12.27;;
18818;SDS011;9537;45.594;9.294;2023-05-07T00:09:23;15.00;;;13.43;;
18818;SDS011;9537;45.594;9.294;2023-05-07T00:10:25;15.47;;;13.57;;
18818;SDS011;9537;45.594;9.294;2023-05-07T00:11:28;14.70;;;13.03;;
18818;SDS011;9537;45.594;9.294;2023-05-07T00:12:29;15.53;;;13.43;;
18818;SDS011;9537;45.594;9.294;2023-05-07T00:13:31;14.87;;;13.33;;
18818;SDS011;9537;45.594;9.294;2023-05-07T00:14:35;14.70;;;13.20;;
18818;SDS011;9537;45.594;9.294;2023-05-07T00:15:37;14.77;;;13.27;;
18818;SDS011;9537;45.594;9.294;2023-05-07T00:16:38;16.10;;;13.40;;
18818;SDS011;9537;45.594;9.294;2023-05-07T00:17:40;13.67;;;12.27;;
18818;SDS011;9537;45.594;9.294;2023-05-07T00:18:41;14.33;;;12.87;;
18818;SDS011;9537;45.594;9.294;2023-05-07T00:19:44;15.30;;;12.80;;
18818;SDS011;9537;45.594;9.294;2023-05-07T00:20:45;12.77;;;11.47;;
18818;SDS011;9537;45.594;9.294;2023-05-07T00:21:47;13.77;;;12.20;;
18818;SDS011;9537;45.594;9.294;2023-05-07T00:22:49;12.60;;;11.30;;
18818;SDS011;9537;45.594;9.294;2023-05-07T00:23:50;12.77;;;11.33;;
18818;SDS011;9537;45.594;9.294;2023-05-07T00:24:51;12.80;;;11.50;;
18818;SDS011;9537;45.594;9.294;2023-05-07T00:25:55;15.73;;;11.67;;
18818;SDS011;9537;45.594;9.294;2023-05-07T00:26:56;12.63;;;11.00;;
18818;SDS011;9537;45.594;9.294;2023-05-07T00:27:59;11.83;;;10.63;;
18818;SDS011;9537;45.594;9.294;2023-05-07T00:29:04;16.47;;;13.60;;
18818;SDS011;9537;45.594;9.294;2023-05-07T00:30:06;15.43;;;13.83;;
18818;SDS011;9537;45.594;9.294;2023-05-07T00:31:08;14.80;;;13.20;;
18818;SDS011;9537;45.594;9.294;2023-05-07T00:32:10;14.80;;;12.80;;
18818;SDS011;9537;45.594;9.294;2023-05-07T00:33:11;17.03;;;14.03;;
18818;SDS011;9537;45.594;9.294;2023-05-07T00:34:13;13.83;;;12.43;;
18818;SDS011;9537;45.594;9.294;2023-05-07T00:35:15;16.70;;;13.60;;
18818;SDS011;9537;45.594;9.294;2023-05-07T00:36:17;13.43;;;12.03;;
18818;SDS011;9537;45.594;9.294;2023-05-07T00:37:18;13.77;;;10.53;;
18818;SDS011;9537;45.594;9.294;2023-05-07T00:38:20;13.93;;;11.00;;
18818;SDS011;9537;45.594;9.294;2023-05-07T00:39:21;13.03;;;10.70;;
18818;SDS011;9537;45.594;9.294;2023-05-07T00:40:23;10.17;;;9.17;;
18818;SDS011;9537;45.594;9.294;2023-05-07T00:41:27;10.90;;;9.77;;
18818;SDS011;9537;45.594;9.294;2023-05-07T00:42:31;11.57;;;9.80;;
18818;SDS011;9537;45.594;9.294;2023-05-07T00:43:33;13.47;;;9.17;;
18818;SDS011;9537;45.594;9.294;2023-05-07T00:44:35;12.27;;;10.53;;
18818;SDS011;9537;45.594;9.294;2023-05-07T00:45:36;11.97;;;10.50;;
18818;SDS011;9537;45.594;9.294;2023-05-07T00:46:38;12.25;;;10.45;;
18818;SDS011;9537;45.594;9.294;2023-05-07T00:47:39;11.88;;;9.82;;
18818;SDS011;9537;45.594;9.294;2023-05-07T00:48:42;14.47;;;10.07;;
18818;SDS011;9537;45.594;9.294;2023-05-07T00:49:44;11.45;;;9.43;;
18818;SDS011;9537;45.594;9.294;2023-05-07T00:50:47;11.82;;;9.68;;
18818;SDS011;9537;45.594;9.294;2023-05-07T00:51:48;11.60;;;10.07;;
18818;SDS011;9537;45.594;9.294;2023-05-07T00:52:52;10.77;;;9.67;;
18818;SDS011;9537;45.594;9.294;2023-05-07T00:53:54;12.23;;;10.93;;
18818;SDS011;9537;45.594;9.294;2023-05-07T00:54:56;13.13;;;10.77;;
18818;SDS011;9537;45.594;9.294;2023-05-07T00:55:57;11.83;;;9.30;;
18818;SDS011;9537;45.594;9.294;2023-05-07T00:57:03;11.33;;;8.97;;
18818;SDS011;9537;45.594;9.294;2023-05-07T00:58:04;10.23;;;7.70;;
18818;SDS011;9537;45.594;9.294;2023-05-07T00:59:06;8.87;;;7.97;;
18818;SDS011;9537;45.594;9.294;2023-05-07T01:00:08;10.68;;;8.55;;
18818;SDS011;9537;45.594;9.294;2023-05-07T01:01:12;7.30;;;6.60;;
18818;SDS011;9537;45.594;9.294;2023-05-07T01:02:13;7.03;;;6.33;;
18818;SDS011;9537;45.594;9.294;2023-05-07T01:03:15;7.50;;;5.80;;
18818;SDS011;9537;45.594;9.294;2023-05-07T01:04:16;6.20;;;5.60;;
18818;SDS011;9537;45.594;9.294;2023-05-07T01:05:18;5.17;;;4.67;;
18818;SDS011;9537;45.594;9.294;2023-05-07T01:06:22;4.93;;;4.47;;
18818;SDS011;9537;45.594;9.294;2023-05-07T01:07:28;5.03;;;4.17;;
18818;SDS011;9537;45.594;9.294;2023-05-07T01:08:30;4.40;;;4.00;;
18818;SDS011;9537;45.594;9.294;2023-05-07T01:09:35;3.70;;;3.33;;
18818;SDS011;9537;45.594;9.294;2023-05-07T01:10:37;3.77;;;3.17;;
18818;SDS011;9537;45.594;9.294;2023-05-07T01:11:43;3.33;;;3.00;;
18818;SDS011;9537;45.594;9.294;2023-05-07T01:12:46;3.40;;;2.67;;
18818;SDS011;9537;45.594;9.294;2023-05-07T01:13:50;2.83;;;2.40;;
18818;SDS011;9537;45.594;9.294;2023-05-07T01:14:51;2.60;;;2.40;;
18818;SDS011;9537;45.594;9.294;2023-05-07T01:15:53;3.23;;;2.80;;
18818;SDS011;9537;45.594;9.294;2023-05-07T01:16:54;3.23;;;2.50;;
18818;SDS011;9537;45.594;9.294;2023-05-07T01:17:56;2.97;;;2.40;;
18818;SDS011;9537;45.594;9.294;2023-05-07T01:18:57;2.53;;;2.30;;
18818;SDS011;9537;45.594;9.294;2023-05-07T01:20:00;2.93;;;2.47;;
18818;SDS011;9537;45.594;9.294;2023-05-07T01:21:01;2.43;;;2.23;;
18818;SDS011;9537;45.594;9.294;2023-05-07T01:22:07;2.80;;;2.60;;
18818;SDS011;9537;45.594;9.294;2023-05-07T01:23:11;2.90;;;2.00;;
18818;SDS011;9537;45.594;9.294;2023-05-07T01:24:13;4.03;;;2.00;;
18818;SDS011;9537;45.594;9.294;2023-05-07T01:25:15;2.17;;;1.97;;
18818;SDS011;9537;45.594;9.294;2023-05-07T01:26:17;2.23;;;2.03;;
18818;SDS011;9537;45.594;9.294;2023-05-07T01:27:20;3.80;;;2.43;;
18818;SDS011;9537;45.594;9.294;2023-05-07T01:28:22;2.63;;;2.00;;
18818;SDS011;9537;45.594;9.294;2023-05-07T01:29:23;3.93;;;2.30;;
18818;SDS011;9537;45.594;9.294;2023-05-07T01:30:25;2.57;;;2.00;;
18818;SDS011;9537;45.594;9.294;2023-05-07T01:31:28;5.60;;;2.30;;
18818;SDS011;9537;45.594;9.294;2023-05-07T01:32:32;4.63;;;2.60;;
18818;SDS011;9537;45.594;9.294;2023-05-07T01:33:38;2.42;;;2.22;;
18818;SDS011;9537;45.594;9.294;2023-05-07T01:34:44;4.60;;;2.60;;
18818;SDS011;9537;45.594;9.294;2023-05-07T01:35:47;5.03;;;2.13;;
18818;SDS011;9537;45.594;9.294;2023-05-07T01:36:52;4.53;;;2.55;;
18818;SDS011;9537;45.594;9.294;2023-05-07T01:37:53;2.50;;;2.30;;
18818;SDS011;9537;45.594;9.294;2023-05-07T01:38:57;2.33;;;2.10;;
18818;SDS011;9537;45.594;9.294;2023-05-07T01:39:59;3.33;;;2.10;;
18818;SDS011;9537;45.594;9.294;2023-05-07T01:41:03;2.23;;;1.90;;
18818;SDS011;9537;45.594;9.294;2023-05-07T01:42:05;3.97;;;2.10;;
18818;SDS011;9537;45.594;9.294;2023-05-07T01:43:07;3.90;;;2.17;;
18818;SDS011;9537;45.594;9.294;2023-05-07T01:44:09;2.30;;;2.10;;
18818;SDS011;9537;45.594;9.294;2023-05-07T01:45:14;1.90;;;1.80;;
18818;SDS011;9537;45.594;9.294;2023-05-07T01:46:15;1.80;;;1.70;;
18818;SDS011;9537;45.594;9.294;2023-05-07T01:47:19;2.20;;;2.00;;
18818;SDS011;9537;45.594;9.294;2023-05-07T01:48:21;3.00;;;1.77;;
18818;SDS011;9537;45.594;9.294;2023-05-07T01:49:23;2.80;;;2.07;;
18818;SDS011;9537;45.594;9.294;2023-05-07T01:50:25;2.95;;;2.10;;
18818;SDS011;9537;45.594;9.294;2023-05-07T01:51:27;1.90;;;1.80;;
18818;SDS011;9537;45.594;9.294;2023-05-07T01:52:28;2.50;;;1.73;;
18818;SDS011;9537;45.594;9.294;2023-05-07T01:53:35;1.80;;;1.70;;
18818;SDS011;9537;45.594;9.294;2023-05-07T01:54:40;2.00;;;1.77;;
18818;SDS011;9537;45.594;9.294;2023-05-07T01:55:43;2.37;;;1.90;;
18818;SDS011;9537;45.594;9.294;2023-05-07T01:56:44;3.10;;;1.97;;
18818;SDS011;9537;45.594;9.294;2023-05-07T01:57:48;2.10;;;1.60;;
18818;SDS011;9537;45.594;9.294;2023-05-07T01:58:49;3.00;;;1.60;;
18818;SDS011;9537;45.594;9.294;2023-05-07T01:59:52;2.37;;;1.77;;
18818;SDS011;9537;45.594;9.294;2023-05-07T02:00:54;5.63;;;1.90;;
18818;SDS011;9537;45.594;9.294;2023-05-07T02:01:56;2.83;;;1.50;;
18818;SDS011;9537;45.594;9.294;2023-05-07T02:02:57;2.23;;;1.33;;
18818;SDS011;9537;45.594;9.294;2023-05-07T02:04:00;3.40;;;1.70;;
18818;SDS011;9537;45.594;9.294;2023-05-07T02:05:01;1.60;;;1.50;;
18818;SDS011;9537;45.594;9.294;2023-05-07T02:06:03;2.70;;;1.50;;
18818;SDS011;9537;45.594;9.294;2023-05-07T02:07:04;1.90;;;1.70;;
18818;SDS011;9537;45.594;9.294;2023-05-07T02:08:07;3.07;;;1.80;;
18818;SDS011;9537;45.594;9.294;2023-05-07T02:09:08;1.90;;;1.60;;
18818;SDS011;9537;45.594;9.294;2023-05-07T02:10:12;1.63;;;1.40;;
18818;SDS011;9537;45.594;9.294;2023-05-07T02:11:14;1.30;;;1.20;;
18818;SDS011;9537;45.594;9.294;2023-05-07T02:12:16;1.83;;;1.50;;
18818;SDS011;9537;45.594;9.294;2023-05-07T02:13:17;2.33;;;1.63;;
18818;SDS011;9537;45.594;9.294;2023-05-07T02:14:20;2.77;;;1.50;;
18818;SDS011;9537;45.594;9.294;2023-05-07T02:15:21;4.40;;;1.70;;
18818;SDS011;9537;45.594;9.294;2023-05-07T02:16:23;2.67;;;1.90;;
18818;SDS011;9537;45.594;9.294;2023-05-07T02:17:24;4.83;;;1.30;;
18818;SDS011;9537;45.594;9.294;2023-05-07T02:18:26;1.43;;;1.33;;
18818;SDS011;9537;45.594;9.294;2023-05-07T02:19:29;1.83;;;1.60;;
18818;SDS011;9537;45.594;9.294;2023-05-07T02:20:30;3.07;;;1.70;;
18818;SDS011;9537;45.594;9.294;2023-05-07T02:21:32;2.37;;;1.57;;
18818;SDS011;9537;45.594;9.294;2023-05-07T02:22:33;4.73;;;1.80;;
18818;SDS011;9537;45.594;9.294;2023-05-07T02:23:35;2.90;;;1.50;;
18818;SDS011;9537;45.594;9.294;2023-05-07T02:24:36;1.30;;;1.20;;
18818;SDS011;9537;45.594;9.294;2023-05-07T02:25:40;2.97;;;1.50;;
18818;SDS011;9537;45.594;9.294;2023-05-07T02:26:42;1.97;;;1.57;;
18818;SDS011;9537;45.594;9.294;2023-05-07T02:27:44;2.27;;;1.70;;
18818;SDS011;9537;45.594;9.294;2023-05-07T02:28:45;2.73;;;1.63;;
18818;SDS011;9537;45.594;9.294;2023-05-07T02:29:47;1.37;;;1.20;;
18818;SDS011;9537;45.594;9.294;2023-05-07T02:30:48;4.13;;;1.67;;
18818;SDS011;9537;45.594;9.294;2023-05-07T02:31:50;2.23;;;1.50;;
18818;SDS011;9537;45.594;9.294;2023-05-07T02:32:53;5.50;;;1.17;;
18818;SDS011;9537;45.594;9.294;2023-05-07T02:33:55;1.30;;;1.20;;
18818;SDS011;9537;45.594;9.294;2023-05-07T02:34:56;3.03;;;1.33;;
18818;SDS011;9537;45.594;9.294;2023-05-07T02:36:04;2.33;;;1.53;;
18818;SDS011;9537;45.594;9.294;2023-05-07T02:37:06;2.17;;;1.13;;
18818;SDS011;9537;45.594;9.294;2023-05-07T02:38:08;2.20;;;1.17;;
18818;SDS011;9537;45.594;9.294;2023-05-07T02:39:11;2.10;;;1.40;;
18818;SDS011;9537;45.594;9.294;2023-05-07T02:40:13;1.73;;;1.43;;
18818;SDS011;9537;45.594;9.294;2023-05-07T02:41:17;2.33;;;1.20;;
18818;SDS011;9537;45.594;9.294;2023-05-07T02:42:19;1.77;;;1.50;;
18818;SDS011;9537;45.594;9.294;2023-05-07T02:43:20;2.67;;;1.40;;
18818;SDS011;9537;45.594;9.294;2023-05-07T02:44:22;1.47;;;1.20;;
18818;SDS011;9537;45.594;9.294;2023-05-07T02:45:23;3.37;;;1.37;;
18818;SDS011;9537;45.594;9.294;2023-05-07T02:46:25;2.83;;;1.30;;
18818;SDS011;9537;45.594;9.294;2023-05-07T02:47:28;1.53;;;1.33;;
18818;SDS011;9537;45.594;9.294;2023-05-07T02:48:29;1.57;;;1.30;;
18818;SDS011;9537;45.594;9.294;2023-05-07T02:49:31;2.30;;;1.40;;
18818;SDS011;9537;45.594;9.294;2023-05-07T02:50:32;1.40;;;1.30;;
18818;SDS011;9537;45.594;9.294;2023-05-07T02:51:34;1.37;;;1.20;;
18818;SDS011;9537;45.594;9.294;2023-05-07T02:52:35;2.00;;;1.30;;
18818;SDS011;9537;45.594;9.294;2023-05-07T02:53:37;1.60;;;1.33;;
18818;SDS011;9537;45.594;9.294;2023-05-07T02:54:38;2.97;;;1.30;;
18818;SDS011;9537;45.594;9.294;2023-05-07T02:55:40;2.07;;;1.10;;
18818;SDS011;9537;45.594;9.294;2023-05-07T02:56:43;2.77;;;1.47;;
18818;SDS011;9537;45.594;9.294;2023-05-07T02:57:45;2.97;;;1.50;;
18818;SDS011;9537;45.594;9.294;2023-05-07T02:58:46;1.87;;;1.40;;
18818;SDS011;9537;45.594;9.294;2023-05-07T02:59:48;2.93;;;1.47;;
18818;SDS011;9537;45.594;9.294;2023-05-07T03:00:49;1.60;;;1.33;;
18818;SDS011;9537;45.594;9.294;2023-05-07T03:01:51;1.77;;;1.20;;
18818;SDS011;9537;45.594;9.294;2023-05-07T03:02:52;1.83;;;1.60;;
18818;SDS011;9537;45.594;9.294;2023-05-07T03:03:55;1.60;;;1.33;;
18818;SDS011;9537;45.594;9.294;2023-05-07T03:04:56;3.77;;;1.40;;
18818;SDS011;9537;45.594;9.294;2023-05-07T03:05:58;3.10;;;1.57;;
18818;SDS011;9537;45.594;9.294;2023-05-07T03:07:00;3.37;;;1.43;;
18818;SDS011;9537;45.594;9.294;2023-05-07T03:08:02;1.77;;;1.40;;
18818;SDS011;9537;45.594;9.294;2023-05-07T03:09:04;4.63;;;1.50;;
18818;SDS011;9537;45.594;9.294;2023-05-07T03:10:09;2.50;;;1.70;;
18818;SDS011;9537;45.594;9.294;2023-05-07T03:11:10;2.13;;;1.33;;
18818;SDS011;9537;45.594;9.294;2023-05-07T03:12:14;2.57;;;1.60;;
18818;SDS011;9537;45.594;9.294;2023-05-07T03:13:15;1.90;;;1.50;;
18818;SDS011;9537;45.594;9.294;2023-05-07T03:14:17;1.40;;;1.27;;
18818;SDS011;9537;45.594;9.294;2023-05-07T03:15:18;1.63;;;1.43;;
18818;SDS011;9537;45.594;9.294;2023-05-07T03:16:20;2.07;;;1.53;;
18818;SDS011;9537;45.594;9.294;2023-05-07T03:17:21;4.60;;;1.40;;
18818;SDS011;9537;45.594;9.294;2023-05-07T03:18:23;2.10;;;1.40;;
18818;SDS011;9537;45.594;9.294;2023-05-07T03:19:25;2.03;;;1.27;;
18818;SDS011;9537;45.594;9.294;2023-05-07T03:20:27;1.40;;;1.30;;
18818;SDS011;9537;45.594;9.294;2023-05-07T03:21:28;1.60;;;1.30;;
18818;SDS011;9537;45.594;9.294;2023-05-07T03:22:31;1.87;;;1.40;;
18818;SDS011;9537;45.594;9.294;2023-05-07T03:23:32;1.90;;;1.27;;
18818;SDS011;9537;45.594;9.294;2023-05-07T03:24:34;2.37;;;1.50;;
18818;SDS011;9537;45.594;9.294;2023-05-07T03:25:35;3.17;;;1.40;;
18818;SDS011;9537;45.594;9.294;2023-05-07T03:26:37;1.63;;;1.53;;
18818;SDS011;9537;45.594;9.294;2023-05-07T03:27:40;2.40;;;1.20;;
18818;SDS011;9537;45.594;9.294;2023-05-07T03:28:42;1.97;;;1.37;;
18818;SDS011;9537;45.594;9.294;2023-05-07T03:29:43;1.90;;;1.80;;
18818;SDS011;9537;45.594;9.294;2023-05-07T03:30:45;1.43;;;1.33;;
18818;SDS011;9537;45.594;9.294;2023-05-07T03:31:46;1.87;;;1.67;;
18818;SDS011;9537;45.594;9.294;2023-05-07T03:32:49;1.60;;;1.50;;
18818;SDS011;9537;45.594;9.294;2023-05-07T03:33:52;2.13;;;1.60;;
18818;SDS011;9537;45.594;9.294;2023-05-07T03:34:56;1.57;;;1.43;;
18818;SDS011;9537;45.594;9.294;2023-05-07T03:35:57;1.90;;;1.27;;
18818;SDS011;9537;45.594;9.294;2023-05-07T03:36:59;3.83;;;1.40;;
18818;SDS011;9537;45.594;9.294;2023-05-07T03:38:02;3.20;;;1.50;;
18818;SDS011;9537;45.594;9.294;2023-05-07T03:39:03;1.50;;;1.40;;
18818;SDS011;9537;45.594;9.294;2023-05-07T03:40:07;3.07;;;1.57;;
18818;SDS011;9537;45.594;9.294;2023-05-07T03:41:10;4.20;;;1.73;;
18818;SDS011;9537;45.594;9.294;2023-05-07T03:42:13;2.83;;;1.65;;
18818;SDS011;9537;45.594;9.294;2023-05-07T03:43:17;1.97;;;1.50;;
18818;SDS011;9537;45.594;9.294;2023-05-07T03:44:19;1.50;;;1.40;;
18818;SDS011;9537;45.594;9.294;2023-05-07T03:45:20;1.90;;;1.53;;
18818;SDS011;9537;45.594;9.294;2023-05-07T03:46:22;2.77;;;1.50;;
18818;SDS011;9537;45.594;9.294;2023-05-07T03:47:26;2.50;;;2.07;;
18818;SDS011;9537;45.594;9.294;2023-05-07T03:48:28;2.03;;;1.60;;
18818;SDS011;9537;45.594;9.294;2023-05-07T03:49:29;2.67;;;1.60;;
18818;SDS011;9537;45.594;9.294;2023-05-07T03:50:31;1.93;;;1.73;;
18818;SDS011;9537;45.594;9.294;2023-05-07T03:51:32;2.13;;;1.70;;
18818;SDS011;9537;45.594;9.294;2023-05-07T03:52:36;1.63;;;1.50;;
18818;SDS011;9537;45.594;9.294;2023-05-07T03:53:37;2.73;;;1.67;;
18818;SDS011;9537;45.594;9.294;2023-05-07T03:54:39;3.23;;;1.50;;
18818;SDS011;9537;45.594;9.294;2023-05-07T03:55:40;3.37;;;2.00;;
18818;SDS011;9537;45.594;9.294;2023-05-07T03:56:42;3.37;;;1.47;;
18818;SDS011;9537;45.594;9.294;2023-05-07T03:57:43;3.03;;;1.73;;
18818;SDS011;9537;45.594;9.294;2023-05-07T03:58:47;1.60;;;1.50;;
18818;SDS011;9537;45.594;9.294;2023-05-07T03:59:48;1.73;;;1.50;;
18818;SDS011;9537;45.594;9.294;2023-05-07T04:00:50;2.60;;;1.37;;
18818;SDS011;9537;45.594;9.294;2023-05-07T04:01:51;1.67;;;1.30;;
18818;SDS011;9537;45.594;9.294;2023-05-07T04:02:53;1.53;;;1.30;;
18818;SDS011;9537;45.594;9.294;2023-05-07T04:03:55;1.37;;;1.20;;
18818;SDS011;9537;45.594;9.294;2023-05-07T04:04:57;1.63;;;1.20;;
18818;SDS011;9537;45.594;9.294;2023-05-07T04:05:58;1.53;;;1.43;;
18818;SDS011;9537;45.594;9.294;2023-05-07T04:07:00;1.93;;;1.23;;
18818;SDS011;9537;45.594;9.294;2023-05-07T04:08:02;3.27;;;1.40;;
18818;SDS011;9537;45.594;9.294;2023-05-07T04:09:04;2.03;;;1.50;;
18818;SDS011;9537;45.594;9.294;2023-05-07T04:10:05;1.80;;;1.30;;
18818;SDS011;9537;45.594;9.294;2023-05-07T04:11:08;1.30;;;1.20;;
18818;SDS011;9537;45.594;9.294;2023-05-07T04:12:09;3.13;;;1.27;;
18818;SDS011;9537;45.594;9.294;2023-05-07T04:13:11;1.83;;;1.50;;
18818;SDS011;9537;45.594;9.294;2023-05-07T04:14:14;1.87;;;1.40;;
18818;SDS011;9537;45.594;9.294;2023-05-07T04:15:16;4.70;;;1.33;;
18818;SDS011;9537;45.594;9.294;2023-05-07T04:16:18;3.00;;;1.50;;
18818;SDS011;9537;45.594;9.294;2023-05-07T04:17:20;1.87;;;1.27;;
18818;SDS011;9537;45.594;9.294;2023-05-07T04:18:21;2.40;;;1.30;;
18818;SDS011;9537;45.594;9.294;2023-05-07T04:19:23;3.07;;;1.70;;
18818;SDS011;9537;45.594;9.294;2023-05-07T04:20:24;2.50;;;1.30;;
18818;SDS011;9537;45.594;9.294;2023-05-07T04:21:26;3.60;;;1.33;;
18818;SDS011;9537;45.594;9.294;2023-05-07T04:22:27;2.57;;;1.40;;
18818;SDS011;9537;45.594;9.294;2023-05-07T04:23:29;1.83;;;1.60;;
18818;SDS011;9537;45.594;9.294;2023-05-07T04:24:31;1.77;;;1.40;;
18818;SDS011;9537;45.594;9.294;2023-05-07T04:25:33;2.37;;;1.40;;
18818;SDS011;9537;45.594;9.294;2023-05-07T04:26:34;3.00;;;1.50;;
18818;SDS011;9537;45.594;9.294;2023-05-07T04:27:36;1.33;;;1.07;;
18818;SDS011;9537;45.594;9.294;2023-05-07T04:28:38;2.40;;;1.20;;
18818;SDS011;9537;45.594;9.294;2023-05-07T04:29:42;2.93;;;1.53;;
18818;SDS011;9537;45.594;9.294;2023-05-07T04:30:47;2.20;;;1.40;;
18818;SDS011;9537;45.594;9.294;2023-05-07T04:31:50;1.63;;;1.10;;
18818;SDS011;9537;45.594;9.294;2023-05-07T04:32:51;1.83;;;1.47;;
18818;SDS011;9537;45.594;9.294;2023-05-07T04:33:53;1.80;;;1.40;;
18818;SDS011;9537;45.594;9.294;2023-05-07T04:34:54;1.30;;;1.03;;
18818;SDS011;9537;45.594;9.294;2023-05-07T04:35:56;1.37;;;1.27;;
18818;SDS011;9537;45.594;9.294;2023-05-07T04:37:03;2.07;;;1.30;;
18818;SDS011;9537;45.594;9.294;2023-05-07T04:38:05;2.00;;;1.47;;
18818;SDS011;9537;45.594;9.294;2023-05-07T04:39:06;1.33;;;1.20;;
18818;SDS011;9537;45.594;9.294;2023-05-07T04:40:09;1.37;;;1.10;;
18818;SDS011;9537;45.594;9.294;2023-05-07T04:41:12;2.07;;;1.57;;
18818;SDS011;9537;45.594;9.294;2023-05-07T04:42:14;1.70;;;1.10;;
18818;SDS011;9537;45.594;9.294;2023-05-07T04:43:16;1.23;;;1.13;;
18818;SDS011;9537;45.594;9.294;2023-05-07T04:44:18;2.40;;;1.30;;
18818;SDS011;9537;45.594;9.294;2023-05-07T04:45:21;1.10;;;1.10;;
18818;SDS011;9537;45.594;9.294;2023-05-07T04:46:23;1.87;;;1.37;;
18818;SDS011;9537;45.594;9.294;2023-05-07T04:47:25;2.33;;;1.30;;
18818;SDS011;9537;45.594;9.294;2023-05-07T04:48:27;1.70;;;1.40;;
18818;SDS011;9537;45.594;9.294;2023-05-07T04:49:29;1.40;;;1.30;;
18818;SDS011;9537;45.594;9.294;2023-05-07T04:50:32;4.27;;;1.30;;
18818;SDS011;9537;45.594;9.294;2023-05-07T04:51:32;2.20;;;1.10;;
18818;SDS011;9537;45.594;9.294;2023-05-07T04:52:35;4.03;;;1.60;;
18818;SDS011;9537;45.594;9.294;2023-05-07T04:53:37;1.97;;;1.47;;
18818;SDS011;9537;45.594;9.294;2023-05-07T04:54:39;1.77;;;1.20;;
18818;SDS011;9537;45.594;9.294;2023-05-07T04:55:40;1.37;;;1.10;;
18818;SDS011;9537;45.594;9.294;2023-05-07T04:56:42;1.67;;;1.20;;
18818;SDS011;9537;45.594;9.294;2023-05-07T04:57:44;1.80;;;1.13;;
18818;SDS011;9537;45.594;9.294;2023-05-07T04:58:45;1.17;;;1.13;;
18818;SDS011;9537;45.594;9.294;2023-05-07T04:59:47;2.30;;;1.30;;
18818;SDS011;9537;45.594;9.294;2023-05-07T05:00:50;1.30;;;1.20;;
18818;SDS011;9537;45.594;9.294;2023-05-07T05:01:52;1.40;;;1.30;;
18818;SDS011;9537;45.594;9.294;2023-05-07T05:02:53;1.73;;;1.30;;
18818;SDS011;9537;45.594;9.294;2023-05-07T05:03:56;2.10;;;1.20;;
18818;SDS011;9537;45.594;9.294;2023-05-07T05:04:56;1.23;;;1.13;;
18818;SDS011;9537;45.594;9.294;2023-05-07T05:05:59;1.67;;;1.40;;
18818;SDS011;9537;45.594;9.294;2023-05-07T05:07:00;1.37;;;1.23;;
18818;SDS011;9537;45.594;9.294;2023-05-07T05:08:04;1.70;;;1.00;;
18818;SDS011;9537;45.594;9.294;2023-05-07T05:09:06;1.30;;;1.20;;
18818;SDS011;9537;45.594;9.294;2023-05-07T05:10:09;2.70;;;1.30;;
18818;SDS011;9537;45.594;9.294;2023-05-07T05:11:10;2.27;;;1.30;;
18818;SDS011;9537;45.594;9.294;2023-05-07T05:12:12;1.73;;;1.20;;
18818;SDS011;9537;45.594;9.294;2023-05-07T05:13:13;1.80;;;1.40;;
18818;SDS011;9537;45.594;9.294;2023-05-07T05:14:15;1.57;;;1.20;;
18818;SDS011;9537;45.594;9.294;2023-05-07T05:15:16;1.63;;;1.30;;
18818;SDS011;9537;45.594;9.294;2023-05-07T05:16:20;2.27;;;1.30;;
18818;SDS011;9537;45.594;9.294;2023-05-07T05:17:21;2.40;;;1.30;;
18818;SDS011;9537;45.594;9.294;2023-05-07T05:18:23;1.60;;;1.30;;
18818;SDS011;9537;45.594;9.294;2023-05-07T05:19:24;1.27;;;1.17;;
18818;SDS011;9537;45.594;9.294;2023-05-07T05:20:26;1.50;;;1.30;;
18818;SDS011;9537;45.594;9.294;2023-05-07T05:21:27;1.20;;;1.20;;
18818;SDS011;9537;45.594;9.294;2023-05-07T05:22:29;1.43;;;1.20;;
18818;SDS011;9537;45.594;9.294;2023-05-07T05:23:31;1.63;;;1.53;;
18818;SDS011;9537;45.594;9.294;2023-05-07T05:24:33;1.87;;;1.10;;
18818;SDS011;9537;45.594;9.294;2023-05-07T05:25:34;1.87;;;1.40;;
18818;SDS011;9537;45.594;9.294;2023-05-07T05:26:37;2.23;;;1.30;;
18818;SDS011;9537;45.594;9.294;2023-05-07T05:27:39;1.33;;;1.23;;
18818;SDS011;9537;45.594;9.294;2023-05-07T05:28:41;2.10;;;1.20;;
18818;SDS011;9537;45.594;9.294;2023-05-07T05:29:42;1.90;;;1.10;;
18818;SDS011;9537;45.594;9.294;2023-05-07T05:30:44;1.33;;;1.20;;
18818;SDS011;9537;45.594;9.294;2023-05-07T05:31:47;1.00;;;1.00;;
18818;SDS011;9537;45.594;9.294;2023-05-07T05:32:49;1.10;;;1.07;;
18818;SDS011;9537;45.594;9.294;2023-05-07T05:33:51;2.47;;;1.27;;
18818;SDS011;9537;45.594;9.294;2023-05-07T05:34:53;1.43;;;1.27;;
18818;SDS011;9537;45.594;9.294;2023-05-07T05:35:54;1.73;;;1.30;;
18818;SDS011;9537;45.594;9.294;2023-05-07T05:36:56;1.20;;;1.10;;
18818;SDS011;9537;45.594;9.294;2023-05-07T05:37:57;1.67;;;1.13;;
18818;SDS011;9537;45.594;9.294;2023-05-07T05:39:00;1.40;;;1.10;;
18818;SDS011;9537;45.594;9.294;2023-05-07T05:40:01;2.00;;;1.20;;
18818;SDS011;9537;45.594;9.294;2023-05-07T05:41:04;1.47;;;1.23;;
18818;SDS011;9537;45.594;9.294;2023-05-07T05:42:05;1.37;;;1.27;;
18818;SDS011;9537;45.594;9.294;2023-05-07T05:43:07;1.40;;;1.30;;
18818;SDS011;9537;45.594;9.294;2023-05-07T05:44:08;1.10;;;1.00;;
18818;SDS011;9537;45.594;9.294;2023-05-07T05:45:10;1.73;;;1.20;;
18818;SDS011;9537;45.594;9.294;2023-05-07T05:46:12;1.90;;;1.20;;
18818;SDS011;9537;45.594;9.294;2023-05-07T05:47:15;3.90;;;1.50;;
18818;SDS011;9537;45.594;9.294;2023-05-07T05:48:16;1.20;;;1.10;;
18818;SDS011;9537;45.594;9.294;2023-05-07T05:49:19;2.47;;;1.37;;
18818;SDS011;9537;45.594;9.294;2023-05-07T05:50:20;1.50;;;1.40;;
18818;SDS011;9537;45.594;9.294;2023-05-07T05:51:22;1.77;;;1.40;;
18818;SDS011;9537;45.594;9.294;2023-05-07T05:52:24;1.60;;;1.50;;
18818;SDS011;9537;45.594;9.294;2023-05-07T05:53:26;1.67;;;1.40;;
18818;SDS011;9537;45.594;9.294;2023-05-07T05:54:27;1.80;;;1.50;;
18818;SDS011;9537;45.594;9.294;2023-05-07T05:55:29;1.70;;;1.60;;
18818;SDS011;9537;45.594;9.294;2023-05-07T05:56:32;1.60;;;1.50;;
18818;SDS011;9537;45.594;9.294;2023-05-07T05:57:35;3.00;;;1.33;;
18818;SDS011;9537;45.594;9.294;2023-05-07T05:58:36;2.30;;;1.23;;
18818;SDS011;9537;45.594;9.294;2023-05-07T05:59:38;3.30;;;1.60;;
18818;SDS011;9537;45.594;9.294;2023-05-07T06:00:39;2.20;;;1.40;;
18818;SDS011;9537;45.594;9.294;2023-05-07T06:01:41;1.43;;;1.33;;
18818;SDS011;9537;45.594;9.294;2023-05-07T06:02:44;1.50;;;1.40;;
18818;SDS011;9537;45.594;9.294;2023-05-07T06:03:46;1.47;;;1.37;;
18818;SDS011;9537;45.594;9.294;2023-05-07T06:04:47;1.47;;;1.30;;
18818;SDS011;9537;45.594;9.294;2023-05-07T06:05:49;1.47;;;1.37;;
18818;SDS011;9537;45.594;9.294;2023-05-07T06:06:50;2.20;;;1.63;;
18818;SDS011;9537;45.594;9.294;2023-05-07T06:07:52;2.10;;;1.90;;
18818;SDS011;9537;45.594;9.294;2023-05-07T06:08:54;1.50;;;1.40;;
18818;SDS011;9537;45.594;9.294;2023-05-07T06:09:56;1.57;;;1.47;;
18818;SDS011;9537;45.594;9.294;2023-05-07T06:10:57;1.90;;;1.50;;
18818;SDS011;9537;45.594;9.294;2023-05-07T06:12:00;2.50;;;1.40;;
18818;SDS011;9537;45.594;9.294;2023-05-07T06:13:01;2.47;;;1.50;;
18818;SDS011;9537;45.594;9.294;2023-05-07T06:14:03;1.60;;;1.30;;
18818;SDS011;9537;45.594;9.294;2023-05-07T06:15:05;1.37;;;1.20;;
18818;SDS011;9537;45.594;9.294;2023-05-07T06:16:08;1.63;;;1.50;;
18818;SDS011;9537;45.594;9.294;2023-05-07T06:17:09;2.20;;;1.63;;
18818;SDS011;9537;45.594;9.294;2023-05-07T06:18:12;1.90;;;1.43;;